Airfield :
LOGIN :

Register | Disclaimer

   EN    FR    IT 

 










Legend :    VFR   Marginal VFR   IFR   Intensive IFR   Very Intensive IFR
Visi :
Ceiling :
>= 8 km
>= 3000ft
5 to 8 km
1000 to 3000 ft
1500m to 5 km
500 to 1000 ft
800 to 1500m
200 to 500 ft
< 800m
< 200 ft
Symbols :   Thunderstorms  Fog  Heavy snow  Heavy precipitations  Wind > 20 kt
SIGMETs :     Misc.  Thunderstorms  Icing  Turbulence  Mountain Waves  Volcanic Ashes






- Airport Elevation : 17 ft
- IATA code : GRS


LIRS - Grosseto

CURRENT METAR :
  • 230755Z 34002KT CAVOK 28/22 Q1014

EXPIRED METARs :
  • 230655Z VRB03KT CAVOK 26/21 Q1014 RMK SKC VIS MIN 9999 WIND THR03 07004KT WIND THR21 11003KT BLU
  • 230555Z 06004KT CAVOK 24/21 Q1014
  • 230455Z 05003KT CAVOK 20/18 Q1013 RMK SKC VIS MIN 9999 WIND THR03 04003KT WIND THR21 05002KT BLU
  • 230355Z VRB02KT CAVOK 20/18 Q1013 RMK SKC VIS MIN 9999 WIND THR03 36003KT WIND THR21 36002KT BLU
  • 230255Z 06004KT CAVOK 22/20 Q1013 RMK SKC VIS MIN 9999 WIND THR03 08003KT WIND THR21 07002KT BLU

TAF TAF LIRS
Valid from the 23 at 06:00 until the 23 at 15:00 UTC


230500Z 2306/2315 03005KT CAVOK
BECMG 2311/2313 33015KT



MET'MAP, your aeronautical weather chart ! - Copyright ORBIFLY December 2007 - Disclaimer

ORBIFLY MET'MAP TEAM :

Programming & Development : Alexandra Zaïnal
Original concept : Baudouin d'Aumeries
Technical & hardware support : Manuel Goepfert
Assistance : Marc-Olivier Méhu




SOURCES & CREDITS :

   NOAA